Time;durP1;ratioP1;P1;durP2;ratioP2;P2;SDS_P1;SDS_P2;PMS_P1;PMS_P2;Temp;Humidity;BMP_temperature;BMP_pressure;BME280_temperature;BME280_humidity;BME280_pressure;Samples;Min_cycle;Max_cycle;Signal;HPM_P1;HPM_P2
2021/12/13 00:02:33;;;;;;;46.63;20.35;;;;;;;;;;5030690;27;96538;-76
2021/12/13 00:05:00;;;;;;;46.33;21.70;;;;;;;;;;5033995;28;95135;-75
2021/12/13 00:07:29;;;;;;;54.00;21.33;;;;;;;;;;5031289;27;97232;-76
2021/12/13 00:09:57;;;;;;;49.90;22.27;;;;;;;;;;5032488;28;95281;-76
2021/12/13 00:12:35;;;;;;;46.63;21.17;;;;;;;;;;5031877;27;97575;-76
2021/12/13 00:15:05;;;;;;;44.58;21.08;;;;;;;;;;5031410;27;97491;-76
2021/12/13 00:17:43;;;;;;;45.15;20.13;;;;;;;;;;5035613;28;95340;-76
2021/12/13 00:20:35;;;;;;;50.30;20.48;;;;;;;;;;5035091;27;95846;-76
2021/12/13 00:23:09;;;;;;;49.50;21.05;;;;;;;;;;5034704;27;97253;-76
2021/12/13 00:25:38;;;;;;;37.20;17.95;;;;;;;;;;5026299;28;95301;-75
2021/12/13 00:28:10;;;;;;;39.25;18.67;;;;;;;;;;5038856;27;96665;-76
2021/12/13 00:30:55;;;;;;;44.53;18.23;;;;;;;;;;5035037;27;95302;-75
2021/12/13 00:33:31;;;;;;;42.72;19.23;;;;;;;;;;5034278;28;96948;-75
2021/12/13 00:36:10;;;;;;;41.65;19.48;;;;;;;;;;5034911;27;97133;-76
2021/12/13 00:38:40;;;;;;;41.20;18.42;;;;;;;;;;5035711;27;95260;-76
2021/12/13 00:41:12;;;;;;;43.25;18.92;;;;;;;;;;5035317;27;96828;-76
2021/12/13 00:43:42;;;;;;;45.00;17.67;;;;;;;;;;5033491;27;97125;-76
2021/12/13 00:46:09;;;;;;;47.60;19.80;;;;;;;;;;5034821;28;95213;-76
2021/12/13 00:48:38;;;;;;;42.40;19.73;;;;;;;;;;5038480;28;97007;-76
2021/12/13 00:51:13;;;;;;;46.17;19.90;;;;;;;;;;5034620;27;95436;-76
2021/12/13 00:53:42;;;;;;;44.10;21.15;;;;;;;;;;5033910;27;96868;-75
2021/12/13 00:56:37;;;;;;;40.30;19.73;;;;;;;;;;5034416;28;96208;-76
2021/12/13 00:59:03;;;;;;;43.75;19.60;;;;;;;;;;5035248;27;95301;-77
2021/12/13 01:01:30;;;;;;;47.28;20.33;;;;;;;;;;5034784;28;96584;-78
2021/12/13 01:03:57;;;;;;;44.78;18.80;;;;;;;;;;5032074;27;97387;-78
2021/12/13 01:06:42;;;;;;;44.70;18.67;;;;;;;;;;5034590;28;95205;-77
2021/12/13 01:09:28;;;;;;;42.22;18.35;;;;;;;;;;5034731;28;97314;-77
2021/12/13 01:11:57;;;;;;;37.65;16.92;;;;;;;;;;5037098;27;97396;-77
2021/12/13 01:14:33;;;;;;;35.97;15.40;;;;;;;;;;5033784;28;96861;-77
2021/12/13 01:17:12;;;;;;;37.33;16.13;;;;;;;;;;5034950;28;97353;-77
2021/12/13 01:20:04;;;;;;;32.00;15.10;;;;;;;;;;5033977;28;95179;-76
2021/12/13 01:22:43;;;;;;;33.83;15.35;;;;;;;;;;5034702;27;96845;-76
2021/12/13 01:25:38;;;;;;;35.35;15.48;;;;;;;;;;5033109;27;97366;-76
2021/12/13 01:28:24;;;;;;;30.35;14.20;;;;;;;;;;5034532;28;95213;-77
2021/12/13 01:30:53;;;;;;;30.60;13.85;;;;;;;;;;5034538;28;96982;-76
2021/12/13 01:33:22;;;;;;;35.25;14.32;;;;;;;;;;5033455;27;97806;-76
2021/12/13 01:35:50;;;;;;;31.73;13.90;;;;;;;;;;5037201;27;95266;-76
2021/12/13 01:38:19;;;;;;;27.73;12.40;;;;;;;;;;5034230;27;97403;-76
2021/12/13 01:40:47;;;;;;;32.05;12.43;;;;;;;;;;5034171;27;95461;-76
2021/12/13 01:43:16;;;;;;;25.55;10.52;;;;;;;;;;5033081;27;96299;-76
2021/12/13 01:45:44;;;;;;;21.55;9.57;;;;;;;;;;5034020;27;97422;-76
2021/12/13 01:48:21;;;;;;;24.15;9.57;;;;;;;;;;5034103;27;95319;-77
2021/12/13 01:50:52;;;;;;;20.15;9.38;;;;;;;;;;5034410;27;96602;-77
2021/12/13 01:53:28;;;;;;;25.73;10.20;;;;;;;;;;5032097;27;97287;-77
2021/12/13 01:55:57;;;;;;;23.50;9.90;;;;;;;;;;5033570;27;95440;-76
2021/12/13 02:01:10;;;;;;;21.50;10.48;;;;;;;;;;5033828;27;95324;-76
2021/12/13 02:03:43;;;;;;;28.50;11.00;;;;;;;;;;5032926;28;96905;-76
2021/12/13 02:06:10;;;;;;;32.22;12.43;;;;;;;;;;5033205;27;97326;-76
2021/12/13 02:08:36;;;;;;;26.95;11.70;;;;;;;;;;5033367;27;95501;-76
2021/12/13 02:11:03;;;;;;;29.13;12.15;;;;;;;;;;5033938;28;96892;-76
2021/12/13 02:13:37;;;;;;;28.52;12.40;;;;;;;;;;5032616;28;97446;-76
2021/12/13 02:18:52;;;;;;;33.85;13.95;;;;;;;;;;5033688;27;96957;-76
2021/12/13 02:21:25;;;;;;;32.80;14.95;;;;;;;;;;5036141;27;97300;-76
2021/12/13 02:23:54;;;;;;;35.35;14.90;;;;;;;;;;5032736;27;96701;-76
2021/12/13 02:26:21;;;;;;;30.60;14.68;;;;;;;;;;5033179;28;97330;-76
2021/12/13 02:28:53;;;;;;;35.25;15.30;;;;;;;;;;5032950;27;95835;-76
2021/12/13 02:31:24;;;;;;;41.05;17.70;;;;;;;;;;5033295;27;96883;-76
2021/12/13 02:33:54;;;;;;;30.83;16.42;;;;;;;;;;5032631;27;97614;-76
2021/12/13 02:36:23;;;;;;;37.65;16.63;;;;;;;;;;5032580;27;95565;-76
2021/12/13 02:38:50;;;;;;;38.28;16.23;;;;;;;;;;5032803;27;97222;-76
2021/12/13 02:41:19;;;;;;;39.35;17.85;;;;;;;;;;5033152;28;97325;-76
2021/12/13 02:43:47;;;;;;;35.67;18.13;;;;;;;;;;5035534;27;96062;-76
2021/12/13 02:46:14;;;;;;;38.72;18.30;;;;;;;;;;5032273;28;97243;-76
2021/12/13 02:48:43;;;;;;;34.42;18.40;;;;;;;;;;5033218;27;95257;-76
2021/12/13 02:51:23;;;;;;;46.65;21.27;;;;;;;;;;5030547;28;97697;-76
2021/12/13 02:53:52;;;;;;;43.78;20.98;;;;;;;;;;5027696;27;97534;-76
2021/12/13 02:56:20;;;;;;;48.30;23.60;;;;;;;;;;5023634;28;95371;-76
2021/12/13 02:58:48;;;;;;;47.72;22.45;;;;;;;;;;5033144;28;96824;-76
2021/12/13 03:01:18;;;;;;;51.38;24.52;;;;;;;;;;5032822;27;97534;-76
2021/12/13 03:03:47;;;;;;;52.58;24.15;;;;;;;;;;5035036;28;95813;-75
2021/12/13 03:06:18;;;;;;;48.45;23.85;;;;;;;;;;5032761;28;97470;-75
2021/12/13 03:08:47;;;;;;;52.28;26.00;;;;;;;;;;5031751;27;95522;-75
2021/12/13 03:11:22;;;;;;;47.17;25.52;;;;;;;;;;5032010;28;96850;-75
2021/12/13 03:13:59;;;;;;;53.15;25.92;;;;;;;;;;5032156;27;97677;-75
2021/12/13 03:16:28;;;;;;;61.17;27.15;;;;;;;;;;5012705;28;95274;-75
2021/12/13 03:18:57;;;;;;;50.33;26.63;;;;;;;;;;5012598;28;96819;-75
2021/12/13 03:21:28;;;;;;;48.25;26.02;;;;;;;;;;5030050;28;97390;-75
2021/12/13 03:24:00;;;;;;;51.92;26.55;;;;;;;;;;5032102;27;95151;-75
2021/12/13 03:26:33;;;;;;;44.63;24.65;;;;;;;;;;5035373;28;96979;-75
2021/12/13 03:28:59;;;;;;;;;;;;;;;;;;5033358;28;95438;-75
2021/12/13 03:31:30;;;;;;;51.10;24.85;;;;;;;;;;5030136;28;126686;-75
2021/12/13 03:34:03;;;;;;;45.88;23.85;;;;;;;;;;5031595;27;97478;-75
2021/12/13 03:36:58;;;;;;;51.28;24.52;;;;;;;;;;5031815;27;95486;-75
2021/12/13 03:39:33;;;;;;;42.65;23.88;;;;;;;;;;5014352;27;97297;-75
2021/12/13 03:42:03;;;;;;;44.80;24.70;;;;;;;;;;5030981;28;97294;-75
2021/12/13 03:44:32;;;;;;;46.92;24.90;;;;;;;;;;5029940;27;96441;-75
2021/12/13 03:47:08;;;;;;;43.70;25.42;;;;;;;;;;5029687;27;96485;-75
2021/12/13 03:49:46;;;;;;;39.95;23.25;;;;;;;;;;5035203;27;97339;-75
2021/12/13 03:52:14;;;;;;;44.95;24.20;;;;;;;;;;5031706;27;97179;-75
2021/12/13 03:54:41;;;;;;;40.55;22.25;;;;;;;;;;5029904;28;100531;-75
2021/12/13 03:57:09;;;;;;;39.97;22.52;;;;;;;;;;5031956;28;95367;-75
2021/12/13 03:59:38;;;;;;;39.88;22.88;;;;;;;;;;5031911;27;96900;-75
2021/12/13 04:02:07;;;;;;;40.72;22.52;;;;;;;;;;5031989;27;97343;-75
2021/12/13 04:04:36;;;;;;;35.13;21.42;;;;;;;;;;5032205;27;95257;-75
2021/12/13 04:07:08;;;;;;;38.30;21.63;;;;;;;;;;5031133;27;95744;-75
2021/12/13 04:09:34;;;;;;;38.28;21.80;;;;;;;;;;5031697;28;97362;-75
2021/12/13 04:12:03;;;;;;;39.83;21.38;;;;;;;;;;5035120;27;95305;-75
2021/12/13 04:14:33;;;;;;;38.65;20.48;;;;;;;;;;5030836;27;97396;-75
2021/12/13 04:17:19;;;;;;;31.40;19.73;;;;;;;;;;5032210;27;95208;-75
2021/12/13 04:19:49;;;;;;;33.58;19.58;;;;;;;;;;5032153;28;96792;-76
2021/12/13 04:22:17;;;;;;;38.28;20.88;;;;;;;;;;5030836;27;97816;-76
2021/12/13 04:24:46;;;;;;;37.33;19.98;;;;;;;;;;5031304;27;95328;-76
2021/12/13 04:27:26;;;;;;;34.63;21.15;;;;;;;;;;5031441;27;97010;-76
2021/12/13 04:29:56;;;;;;;31.88;19.83;;;;;;;;;;5031879;28;97358;-74
2021/12/13 04:32:33;;;;;;;35.40;20.17;;;;;;;;;;5030607;27;95425;-77
2021/12/13 04:35:03;;;;;;;38.42;20.65;;;;;;;;;;5034263;28;96614;-78
2021/12/13 04:37:33;;;;;;;37.53;20.85;;;;;;;;;;5031296;27;95255;-76
2021/12/13 04:40:04;;;;;;;39.55;21.83;;;;;;;;;;5031761;28;97964;-74
2021/12/13 04:42:30;;;;;;;41.30;22.70;;;;;;;;;;5030776;27;99776;-77
2021/12/13 04:45:03;;;;;;;39.95;21.63;;;;;;;;;;5031753;27;95210;-77
2021/12/13 04:47:33;;;;;;;36.90;21.10;;;;;;;;;;5031070;27;96940;-75
2021/12/13 04:50:13;;;;;;;37.35;21.50;;;;;;;;;;5030819;27;97312;-75
2021/12/13 04:52:40;;;;;;;42.70;22.08;;;;;;;;;;5031428;27;95343;-75
2021/12/13 04:55:10;;;;;;;38.67;21.75;;;;;;;;;;5031007;28;96861;-75
2021/12/13 04:57:36;;;;;;;36.67;20.50;;;;;;;;;;5033671;27;95403;-74
2021/12/13 05:00:06;;;;;;;34.00;20.48;;;;;;;;;;5031762;28;96835;-75
2021/12/13 05:02:32;;;;;;;35.25;19.90;;;;;;;;;;5032746;28;97225;-75
2021/12/13 05:05:03;;;;;;;38.13;21.42;;;;;;;;;;5035039;27;95284;-75
2021/12/13 05:07:31;;;;;;;37.92;21.55;;;;;;;;;;5033743;27;96828;-75
2021/12/13 05:09:58;;;;;;;36.47;21.23;;;;;;;;;;5034253;27;97505;-75
2021/12/13 05:12:28;;;;;;;32.42;19.95;;;;;;;;;;5032532;27;95298;-75
2021/12/13 05:14:58;;;;;;;34.65;21.15;;;;;;;;;;5034960;27;96784;-75
2021/12/13 05:17:36;;;;;;;38.95;20.90;;;;;;;;;;5036708;28;96949;-75
2021/12/13 05:20:09;;;;;;;34.38;20.25;;;;;;;;;;5034570;27;97266;-75
2021/12/13 05:22:44;;;;;;;33.72;20.33;;;;;;;;;;5033793;27;97326;-75
2021/12/13 05:25:18;;;;;;;38.15;21.20;;;;;;;;;;5034148;27;96056;-75
2021/12/13 05:27:46;;;;;;;39.13;20.98;;;;;;;;;;5034544;27;97130;-75
2021/12/13 05:30:16;;;;;;;34.95;20.92;;;;;;;;;;5031810;28;96126;-75
2021/12/13 05:32:54;;;;;;;36.15;20.85;;;;;;;;;;5032485;27;95585;-75
2021/12/13 05:35:22;;;;;;;33.88;21.08;;;;;;;;;;5034502;28;97231;-75
2021/12/13 05:37:51;;;;;;;39.65;22.23;;;;;;;;;;5033923;28;97588;-75
2021/12/13 05:40:18;;;;;;;42.33;22.40;;;;;;;;;;5037366;27;95150;-75
2021/12/13 05:42:51;;;;;;;36.35;21.55;;;;;;;;;;5033019;28;96673;-75
2021/12/13 05:45:34;;;;;;;35.72;20.92;;;;;;;;;;5029848;28;95227;-75
2021/12/13 05:48:08;;;;;;;43.22;20.95;;;;;;;;;;5023203;28;96926;-75
2021/12/13 05:50:40;;;;;;;41.20;22.52;;;;;;;;;;5034107;28;97277;-75
2021/12/13 05:53:12;;;;;;;31.95;19.25;;;;;;;;;;5032680;27;95216;-75
2021/12/13 05:55:46;;;;;;;37.53;21.67;;;;;;;;;;5029875;28;97088;-75
2021/12/13 05:58:28;;;;;;;37.72;20.65;;;;;;;;;;5033732;27;96484;-75
2021/12/13 06:00:56;;;;;;;34.28;20.80;;;;;;;;;;5033598;28;96118;-75
2021/12/13 06:03:33;;;;;;;35.15;20.30;;;;;;;;;;5036862;28;96640;-75
2021/12/13 06:06:08;;;;;;;38.83;20.67;;;;;;;;;;5032405;27;95652;-75
2021/12/13 06:08:38;;;;;;;32.60;20.08;;;;;;;;;;5033904;27;96764;-76
2021/12/13 06:11:08;;;;;;;42.25;21.77;;;;;;;;;;5027616;28;97325;-75
2021/12/13 06:13:43;;;;;;;42.05;22.58;;;;;;;;;;5022436;28;95281;-75
2021/12/13 06:16:10;;;;;;;44.22;23.13;;;;;;;;;;5033336;27;97271;-75
2021/12/13 06:18:55;;;;;;;41.00;21.67;;;;;;;;;;5033043;27;97763;-75
2021/12/13 06:21:30;;;;;;;40.80;21.45;;;;;;;;;;5032876;28;95382;-75
2021/12/13 06:23:56;;;;;;;46.33;22.42;;;;;;;;;;5033738;28;96863;-75
2021/12/13 06:26:26;;;;;;;40.55;21.83;;;;;;;;;;5034164;27;97402;-75
2021/12/13 06:28:54;;;;;;;40.55;21.67;;;;;;;;;;5015713;28;98209;-75
2021/12/13 06:31:21;;;;;;;38.75;21.15;;;;;;;;;;5033559;27;97358;-75
2021/12/13 06:33:50;;;;;;;43.58;22.48;;;;;;;;;;5033515;27;95415;-75
2021/12/13 06:36:46;;;;;;;42.58;22.77;;;;;;;;;;5032141;27;96600;-75
2021/12/13 06:39:14;;;;;;;47.40;23.02;;;;;;;;;;5024231;28;97367;-75
2021/12/13 06:41:40;;;;;;;46.13;22.60;;;;;;;;;;5031561;28;95398;-75
2021/12/13 06:44:27;;;;;;;48.90;22.95;;;;;;;;;;5031404;28;96621;-75
2021/12/13 06:47:00;;;;;;;51.38;23.13;;;;;;;;;;5032050;27;96308;-75
2021/12/13 06:49:31;;;;;;;52.03;24.52;;;;;;;;;;5035340;27;97014;-75
2021/12/13 06:51:57;;;;;;;51.63;24.55;;;;;;;;;;5032816;28;97165;-75
2021/12/13 06:54:33;;;;;;;52.22;24.00;;;;;;;;;;5032371;27;95235;-75
2021/12/13 06:57:02;;;;;;;45.67;23.38;;;;;;;;;;5031381;27;97270;-75
2021/12/13 06:59:30;;;;;;;47.95;22.98;;;;;;;;;;5032849;28;97657;-75
2021/12/13 07:02:01;;;;;;;44.72;22.08;;;;;;;;;;5032760;27;95376;-74
2021/12/13 07:04:36;;;;;;;49.17;23.77;;;;;;;;;;5032806;27;97074;-75
2021/12/13 07:07:10;;;;;;;48.30;24.08;;;;;;;;;;5032474;28;97321;-75
2021/12/13 07:09:37;;;;;;;46.10;23.23;;;;;;;;;;5035463;27;97035;-76
2021/12/13 07:12:10;;;;;;;48.67;24.42;;;;;;;;;;5032700;28;97314;-75
2021/12/13 07:14:38;;;;;;;44.50;23.08;;;;;;;;;;5033142;27;95260;-75
2021/12/13 07:17:13;;;;;;;49.40;22.63;;;;;;;;;;5031549;28;96905;-75
2021/12/13 07:19:42;;;;;;;58.72;24.55;;;;;;;;;;5032775;27;97403;-75
2021/12/13 07:22:09;;;;;;;53.40;24.50;;;;;;;;;;5031789;27;95334;-75
2021/12/13 07:24:42;;;;;;;52.25;24.42;;;;;;;;;;5031984;27;95517;-74
2021/12/13 07:27:13;;;;;;;54.15;24.05;;;;;;;;;;5031153;27;97328;-75
2021/12/13 07:29:43;;;;;;;54.40;23.53;;;;;;;;;;5032279;28;95543;-74
2021/12/13 07:32:29;;;;;;;50.03;22.98;;;;;;;;;;5034016;28;96778;-74
2021/12/13 07:35:01;;;;;;;47.80;23.55;;;;;;;;;;5032212;28;95249;-74
2021/12/13 16:33:44;;;;;;;16.00;9.40;;;;;;;;;;5071816;27;1305279;-75
2021/12/13 16:36:21;;;;;;;22.17;10.10;;;;;;;;;;5081354;27;97241;-75
2021/12/13 16:38:52;;;;;;;20.48;10.45;;;;;;;;;;5087288;27;95076;-74
2021/12/13 16:41:20;;;;;;;15.88;9.40;;;;;;;;;;5087878;27;96995;-75
2021/12/13 16:43:48;;;;;;;13.75;9.50;;;;;;;;;;5076984;27;96622;-75
2021/12/13 16:46:16;;;;;;;13.88;9.30;;;;;;;;;;5084550;27;95208;-75
2021/12/13 16:48:49;;;;;;;15.63;9.85;;;;;;;;;;5089813;27;96964;-75
2021/12/13 16:51:24;;;;;;;16.42;8.55;;;;;;;;;;5088515;27;97649;-75
2021/12/13 16:53:51;;;;;;;16.50;9.90;;;;;;;;;;5081536;27;95343;-75
2021/12/13 16:56:19;;;;;;;13.52;8.65;;;;;;;;;;5083319;27;97295;-75
2021/12/13 16:58:49;;;;;;;16.45;9.68;;;;;;;;;;5084629;27;95219;-75
2021/12/13 17:01:17;;;;;;;16.15;8.65;;;;;;;;;;5078095;27;96841;-78
2021/12/13 17:03:44;;;;;;;14.52;9.07;;;;;;;;;;5071503;27;97891;-75
2021/12/13 17:06:16;;;;;;;16.83;8.63;;;;;;;;;;5086067;27;95256;-76
2021/12/13 17:08:44;;;;;;;16.65;9.35;;;;;;;;;;5079606;27;97274;-75
2021/12/13 17:11:13;;;;;;;17.80;9.18;;;;;;;;;;5085532;27;97880;-75
2021/12/13 17:13:43;;;;;;;13.43;8.88;;;;;;;;;;5078335;27;95382;-75
2021/12/13 17:16:13;;;;;;;17.33;9.00;;;;;;;;;;5082254;27;97117;-75
2021/12/13 17:18:47;;;;;;;14.25;8.80;;;;;;;;;;5074940;27;95577;-75
2021/12/13 17:21:23;;;;;;;16.98;9.30;;;;;;;;;;5084390;27;96972;-75
2021/12/13 17:23:54;;;;;;;18.40;9.43;;;;;;;;;;5086158;27;97727;-75
2021/12/13 17:26:25;;;;;;;13.88;8.30;;;;;;;;;;5083009;27;95228;-75
2021/12/13 17:29:01;;;;;;;16.23;9.88;;;;;;;;;;5089483;27;97087;-75
2021/12/13 17:31:58;;;;;;;14.85;9.40;;;;;;;;;;5088962;27;97283;-75
2021/12/13 17:34:25;;;;;;;17.50;8.57;;;;;;;;;;5032974;27;95363;-75
2021/12/13 17:36:52;;;;;;;15.68;8.98;;;;;;;;;;5088912;27;96548;-75
2021/12/13 17:39:26;;;;;;;18.55;10.50;;;;;;;;;;5091417;27;97338;-75
2021/12/13 17:41:53;;;;;;;19.67;10.90;;;;;;;;;;5088259;27;95691;-76
2021/12/13 17:44:19;;;;;;;29.50;14.98;;;;;;;;;;5067201;27;98279;-75
2021/12/13 17:46:46;;;;;;;28.90;12.45;;;;;;;;;;5065561;27;95146;-74
2021/12/13 17:49:13;;;;;;;19.33;11.82;;;;;;;;;;5061307;27;96741;-75
2021/12/13 17:51:49;;;;;;;18.98;10.32;;;;;;;;;;5071437;27;97345;-75
2021/12/13 17:54:17;;;;;;;16.60;9.07;;;;;;;;;;5072222;27;95201;-75
2021/12/13 17:56:47;;;;;;;18.20;9.77;;;;;;;;;;5074293;27;96872;-75
2021/12/13 17:59:13;;;;;;;15.98;9.68;;;;;;;;;;5074589;27;97561;-75
2021/12/13 18:01:44;;;;;;;17.35;10.63;;;;;;;;;;5067519;27;96572;-75
2021/12/13 18:04:13;;;;;;;20.58;9.75;;;;;;;;;;5071415;27;97243;-75
2021/12/13 18:06:47;;;;;;;16.73;10.30;;;;;;;;;;5073744;27;95356;-75
2021/12/13 18:09:29;;;;;;;16.23;9.63;;;;;;;;;;5068186;27;96233;-75
2021/12/13 18:12:11;;;;;;;16.88;9.40;;;;;;;;;;5054038;27;97330;-78
2021/12/13 18:14:40;;;;;;;17.33;9.13;;;;;;;;;;5060558;27;95220;-75
2021/12/13 18:17:15;;;;;;;20.02;11.35;;;;;;;;;;5054693;27;96876;-75
2021/12/13 18:19:50;;;;;;;16.58;9.80;;;;;;;;;;5069352;27;97836;-75
2021/12/13 18:22:37;;;;;;;15.43;9.82;;;;;;;;;;5058147;27;95817;-76
2021/12/13 18:25:22;;;;;;;13.48;8.48;;;;;;;;;;5076171;27;96890;-76
2021/12/13 18:27:48;;;;;;;17.48;9.73;;;;;;;;;;5073861;27;95353;-75
2021/12/13 18:30:20;;;;;;;47.40;27.90;;;;;;;;;;5074568;27;97132;-75
2021/12/13 18:32:48;;;;;;;23.38;12.15;;;;;;;;;;5072998;27;96161;-75
2021/12/13 18:35:23;;;;;;;15.98;10.10;;;;;;;;;;5066125;27;95323;-75
2021/12/13 18:37:50;;;;;;;20.92;9.73;;;;;;;;;;5073331;27;96736;-75
2021/12/13 18:40:19;;;;;;;19.08;9.60;;;;;;;;;;5073190;27;97278;-75
2021/12/13 18:42:59;;;;;;;17.17;9.30;;;;;;;;;;5072615;27;95220;-75
2021/12/13 18:45:28;;;;;;;14.60;8.80;;;;;;;;;;5068731;27;96840;-75
2021/12/13 18:47:56;;;;;;;14.10;8.57;;;;;;;;;;5067408;27;95342;-75
2021/12/13 18:50:23;;;;;;;14.00;9.07;;;;;;;;;;5073350;27;97079;-75
2021/12/13 18:52:53;;;;;;;16.70;9.40;;;;;;;;;;5068917;27;97314;-75
2021/12/13 18:55:26;;;;;;;18.85;9.45;;;;;;;;;;5057487;27;95218;-75
2021/12/13 18:57:58;;;;;;;13.05;9.07;;;;;;;;;;5070311;27;96743;-75
2021/12/13 19:00:27;;;;;;;18.55;9.25;;;;;;;;;;5065625;27;97229;-75
2021/12/13 19:02:54;;;;;;;19.83;9.30;;;;;;;;;;5073484;27;95261;-75
2021/12/13 19:05:26;;;;;;;18.17;8.80;;;;;;;;;;5069612;27;96676;-75
2021/12/13 19:08:01;;;;;;;16.33;9.32;;;;;;;;;;5070944;27;97775;-74
2021/12/13 19:10:39;;;;;;;16.67;9.55;;;;;;;;;;5066487;27;96864;-75
2021/12/13 19:13:15;;;;;;;18.70;9.93;;;;;;;;;;5053293;27;97422;-75
2021/12/13 19:15:41;;;;;;;14.48;9.25;;;;;;;;;;5056094;27;95509;-75
2021/12/13 19:18:09;;;;;;;16.60;9.50;;;;;;;;;;5053083;27;96680;-75
2021/12/13 19:20:48;;;;;;;16.98;9.43;;;;;;;;;;5057876;27;97173;-74
2021/12/13 19:23:22;;;;;;;17.88;9.23;;;;;;;;;;5073788;27;95138;-75
2021/12/13 19:25:51;;;;;;;15.93;9.60;;;;;;;;;;5062250;27;97179;-75
2021/12/13 19:28:19;;;;;;;24.42;9.30;;;;;;;;;;5071659;27;97430;-74
2021/12/13 19:30:55;;;;;;;14.68;9.27;;;;;;;;;;5067986;27;95357;-74
2021/12/13 19:33:27;;;;;;;18.70;9.93;;;;;;;;;;5072909;27;97470;-74
2021/12/13 19:36:16;;;;;;;18.42;9.60;;;;;;;;;;5069387;27;95323;-75
2021/12/13 19:38:45;;;;;;;14.85;9.48;;;;;;;;;;5067152;27;96994;-74
2021/12/13 19:41:16;;;;;;;22.75;10.25;;;;;;;;;;5074059;27;97282;-74
2021/12/13 19:43:45;;;;;;;18.35;9.43;;;;;;;;;;5069958;27;96839;-74
2021/12/13 19:46:12;;;;;;;17.17;10.18;;;;;;;;;;5055509;27;96767;-74
2021/12/13 19:48:50;;;;;;;18.20;9.43;;;;;;;;;;5061366;27;97417;-74
2021/12/13 19:51:21;;;;;;;15.02;9.38;;;;;;;;;;5068627;27;96951;-74
2021/12/13 19:53:50;;;;;;;15.10;8.88;;;;;;;;;;5067511;27;96671;-74
2021/12/13 19:56:23;;;;;;;20.80;9.30;;;;;;;;;;5067247;27;95277;-73
2021/12/13 19:59:05;;;;;;;13.90;8.57;;;;;;;;;;5063205;27;96612;-74
2021/12/13 20:01:35;;;;;;;16.83;9.10;;;;;;;;;;5074153;27;97416;-74
2021/12/13 20:04:15;;;;;;;17.48;8.07;;;;;;;;;;5072405;27;95330;-74
2021/12/13 20:06:43;;;;;;;15.35;7.95;;;;;;;;;;5071262;27;97200;-74
2021/12/13 20:09:16;;;;;;;12.68;7.80;;;;;;;;;;5064192;27;97086;-74
2021/12/13 20:11:45;;;;;;;14.38;8.55;;;;;;;;;;5071484;27;95794;-74
2021/12/13 20:14:17;;;;;;;13.88;7.82;;;;;;;;;;5063948;27;96590;-73
2021/12/13 20:16:45;;;;;;;13.27;8.30;;;;;;;;;;5063819;27;97577;-74
2021/12/13 20:19:39;;;;;;;16.42;8.50;;;;;;;;;;5051971;27;96819;-74
2021/12/13 20:22:12;;;;;;;13.35;7.97;;;;;;;;;;5049246;27;96755;-74
2021/12/13 20:24:44;;;;;;;15.98;7.97;;;;;;;;;;5057147;27;97526;-74
2021/12/13 20:27:19;;;;;;;15.40;8.25;;;;;;;;;;5072456;27;96715;-74
2021/12/13 20:29:58;;;;;;;15.38;7.68;;;;;;;;;;5060209;27;97287;-73
2021/12/13 20:32:33;;;;;;;17.20;8.60;;;;;;;;;;5055449;27;95327;-74
2021/12/13 20:35:05;;;;;;;14.02;7.90;;;;;;;;;;5068641;27;96837;-74
2021/12/13 20:37:41;;;;;;;14.20;8.68;;;;;;;;;;5058869;27;97533;-73
2021/12/13 20:40:09;;;;;;;15.98;8.18;;;;;;;;;;5061456;27;95363;-74
2021/12/13 20:42:38;;;;;;;13.57;8.60;;;;;;;;;;5054053;27;97240;-73
2021/12/13 20:45:07;;;;;;;13.30;8.15;;;;;;;;;;5072001;27;95392;-74
2021/12/13 20:47:36;;;;;;;14.25;8.98;;;;;;;;;;5054531;27;96816;-74
2021/12/13 20:50:05;;;;;;;18.85;8.63;;;;;;;;;;5051798;27;97284;-73
2021/12/13 20:52:34;;;;;;;13.95;8.90;;;;;;;;;;5066301;27;95173;-73
2021/12/13 20:55:04;;;;;;;16.48;8.88;;;;;;;;;;5065263;27;96794;-73
2021/12/13 20:57:36;;;;;;;13.68;8.20;;;;;;;;;;5070114;27;96439;-73
2021/12/13 21:00:03;;;;;;;;;;;;;;;;;;5054689;27;95309;-73
2021/12/13 21:02:32;;;;;;;16.55;9.57;;;;;;;;;;5050073;27;127095;-73
2021/12/13 21:05:03;;;;;;;14.38;8.70;;;;;;;;;;5070618;27;95178;-73
2021/12/13 21:07:33;;;;;;;15.73;9.48;;;;;;;;;;5071036;27;96741;-73
2021/12/13 21:09:59;;;;;;;17.35;9.43;;;;;;;;;;5065414;27;97786;-73
2021/12/13 21:12:32;;;;;;;16.20;9.25;;;;;;;;;;5063103;27;95401;-73
2021/12/13 21:15:00;;;;;;;21.35;9.38;;;;;;;;;;5071097;27;96897;-73
2021/12/13 21:17:31;;;;;;;19.35;9.75;;;;;;;;;;5070993;27;97335;-73
2021/12/13 21:20:07;;;;;;;15.43;10.07;;;;;;;;;;5072446;27;96459;-73
2021/12/13 21:22:35;;;;;;;16.83;10.32;;;;;;;;;;5063570;27;97095;-74
2021/12/13 21:25:02;;;;;;;14.38;9.68;;;;;;;;;;5054763;27;95357;-73
2021/12/13 21:27:31;;;;;;;17.75;10.55;;;;;;;;;;5053454;27;97228;-73
2021/12/13 21:30:00;;;;;;;17.90;10.07;;;;;;;;;;5060738;27;97349;-73
2021/12/13 21:32:29;;;;;;;22.05;10.93;;;;;;;;;;5069880;27;96328;-74
2021/12/13 21:35:02;;;;;;;20.55;10.95;;;;;;;;;;5067900;27;96766;-75
2021/12/13 21:40:23;;;;;;;18.17;11.05;;;;;;;;;;5066648;27;96704;-74
2021/12/13 21:42:52;;;;;;;18.33;11.10;;;;;;;;;;5068561;27;96788;-75
2021/12/13 21:45:21;;;;;;;24.23;10.98;;;;;;;;;;5072115;27;97290;-74
2021/12/13 21:48:11;;;;;;;20.65;11.07;;;;;;;;;;5074792;27;96721;-74
2021/12/13 21:50:37;;;;;;;19.80;10.95;;;;;;;;;;5063699;27;97217;-74
2021/12/13 21:53:09;;;;;;;23.83;12.05;;;;;;;;;;5073606;27;95447;-74
2021/12/13 21:56:01;;;;;;;20.60;11.15;;;;;;;;;;5066859;27;96840;-75
2021/12/13 21:58:29;;;;;;;19.05;11.38;;;;;;;;;;5029086;27;97632;-75
2021/12/13 22:01:07;;;;;;;19.75;11.40;;;;;;;;;;5068247;27;95258;-74
2021/12/13 22:03:36;;;;;;;18.88;12.05;;;;;;;;;;5073230;27;96907;-74
2021/12/13 22:06:04;;;;;;;20.90;12.15;;;;;;;;;;5065956;27;97348;-74
2021/12/13 22:08:35;;;;;;;16.63;11.63;;;;;;;;;;5077288;27;95314;-73
2021/12/13 22:11:09;;;;;;;24.20;12.27;;;;;;;;;;5073340;27;97320;-73
2021/12/13 22:13:35;;;;;;;21.98;11.98;;;;;;;;;;5073877;27;95229;-75
2021/12/13 22:16:04;;;;;;;22.33;12.32;;;;;;;;;;5059086;27;96879;-75
2021/12/13 22:18:36;;;;;;;18.98;11.63;;;;;;;;;;5052255;27;97174;-74
2021/12/13 22:21:14;;;;;;;24.48;12.80;;;;;;;;;;5056885;27;95217;-75
2021/12/13 22:23:46;;;;;;;19.70;12.70;;;;;;;;;;5064537;27;96881;-75
2021/12/13 22:26:12;;;;;;;;;;;;;;;;;;5072921;27;97444;-74
2021/12/13 22:28:41;;;;;;;19.80;12.00;;;;;;;;;;5073455;27;119495;-74
2021/12/13 22:31:09;;;;;;;25.75;12.48;;;;;;;;;;5076939;27;96446;-76
2021/12/13 22:33:36;;;;;;;21.45;11.70;;;;;;;;;;5073863;27;95397;-75
2021/12/13 22:36:04;;;;;;;19.60;12.35;;;;;;;;;;5073963;27;95079;-75
2021/12/13 22:38:35;;;;;;;20.38;12.52;;;;;;;;;;5073231;27;97753;-73
2021/12/13 22:41:20;;;;;;;23.30;12.82;;;;;;;;;;5073973;27;95407;-74
2021/12/13 22:44:07;;;;;;;21.10;12.27;;;;;;;;;;5062364;27;96046;-74
2021/12/13 22:46:42;;;;;;;19.55;12.73;;;;;;;;;;5062478;27;96737;-74
2021/12/13 22:49:15;;;;;;;20.20;13.00;;;;;;;;;;5074647;27;95298;-74
2021/12/13 22:51:49;;;;;;;23.00;13.17;;;;;;;;;;5073739;27;96229;-74
2021/12/13 22:54:18;;;;;;;19.75;13.15;;;;;;;;;;5077506;27;100080;-74
2021/12/13 22:56:48;;;;;;;24.10;13.63;;;;;;;;;;5073947;27;96368;-74
2021/12/13 22:59:18;;;;;;;22.75;13.55;;;;;;;;;;5072441;27;97319;-74
2021/12/13 23:01:48;;;;;;;22.08;13.63;;;;;;;;;;5075258;27;95437;-74
2021/12/13 23:04:28;;;;;;;23.30;14.57;;;;;;;;;;5074213;27;96806;-73
2021/12/13 23:07:04;;;;;;;26.57;15.20;;;;;;;;;;5060417;27;97464;-74
2021/12/13 23:09:51;;;;;;;25.73;14.75;;;;;;;;;;5071314;27;95281;-74
2021/12/13 23:15:20;;;;;;;29.65;16.13;;;;;;;;;;5077165;27;96593;-74
2021/12/13 23:17:49;;;;;;;27.42;15.52;;;;;;;;;;5074175;27;98095;-74
2021/12/13 23:20:18;;;;;;;27.52;15.25;;;;;;;;;;5053995;27;97605;-74
2021/12/13 23:22:47;;;;;;;27.45;15.63;;;;;;;;;;5053802;27;95373;-74
2021/12/13 23:25:17;;;;;;;28.17;14.98;;;;;;;;;;5053947;27;95731;-74
2021/12/13 23:27:48;;;;;;;24.55;15.75;;;;;;;;;;5070646;27;97288;-74
2021/12/13 23:30:27;;;;;;;29.05;16.10;;;;;;;;;;5052569;27;95402;-74
2021/12/13 23:32:58;;;;;;;28.98;15.90;;;;;;;;;;5056754;27;95845;-73
2021/12/13 23:35:39;;;;;;;27.73;15.38;;;;;;;;;;5062839;27;97273;-73
2021/12/13 23:38:09;;;;;;;27.58;16.30;;;;;;;;;;5075005;27;95213;-74
2021/12/13 23:46:12;;;;;;;30.40;16.75;;;;;;;;;;5053769;27;96932;-74
2021/12/13 23:48:40;;;;;;;26.20;16.65;;;;;;;;;;5073155;27;97239;-73
2021/12/13 23:51:12;;;;;;;27.63;17.27;;;;;;;;;;5073269;27;95368;-74
2021/12/13 23:53:39;;;;;;;30.10;16.90;;;;;;;;;;5053707;27;97232;-74
2021/12/13 23:56:12;;;;;;;26.38;16.63;;;;;;;;;;5066924;27;97290;-74
2021/12/13 23:58:42;;;;;;;26.98;16.77;;;;;;;;;;5054348;27;95404;-74
